Time;durP1;ratioP1;P1;durP2;ratioP2;P2;SDS_P1;SDS_P2;PMS_P1;PMS_P2;Temp;Humidity;BMP_temperature;BMP_pressure;BME280_temperature;BME280_humidity;BME280_pressure;Samples;Min_cycle;Max_cycle;Signal;HPM_P1;HPM_P2
2021/03/09 00:00:13;;;;;;;174.40;61.70;;;;;;;-6.73;65.11;97627.59;1789144;77;26316;-82
2021/03/09 00:02:43;;;;;;;174.07;61.77;;;;;;;-6.77;65.14;97632.23;1814652;77;26310;-81
2021/03/09 00:05:11;;;;;;;168.32;62.15;;;;;;;-6.84;65.09;97611.23;1800090;77;25835;-82
2021/03/09 00:07:40;;;;;;;175.12;67.20;;;;;;;-6.80;65.17;97626.32;1808196;77;25702;-83
2021/03/09 00:10:09;;;;;;;170.60;63.48;;;;;;;-6.79;65.17;97628.85;1763248;80;25748;-82
2021/03/09 00:12:37;;;;;;;188.87;69.00;;;;;;;-6.79;65.22;97633.26;1798675;79;25789;-82
2021/03/09 00:15:05;;;;;;;189.70;72.12;;;;;;;-6.77;65.33;97630.91;1746413;80;27600;-83
2021/03/09 00:17:33;;;;;;;190.12;71.67;;;;;;;-6.74;65.26;97635.09;1772965;80;25832;-86
2021/03/09 00:20:02;;;;;;;193.22;73.37;;;;;;;-6.77;65.02;97636.63;1842829;77;25805;-82
2021/03/09 00:22:30;;;;;;;173.10;65.30;;;;;;;-6.86;64.87;97636.73;1803870;77;25779;-82
2021/03/09 00:24:58;;;;;;;167.55;60.75;;;;;;;-6.97;64.84;97640.05;1842889;77;26277;-82
2021/03/09 00:27:26;;;;;;;149.23;57.62;;;;;;;-7.05;64.82;97635.77;1842793;77;27517;-82
2021/03/09 00:29:53;;;;;;;146.05;55.73;;;;;;;-7.15;64.89;97645.16;1842782;77;25768;-82
2021/03/09 00:32:20;;;;;;;129.03;48.92;;;;;;;-7.16;65.06;97644.78;1842780;77;27077;-82
2021/03/09 00:34:48;;;;;;;129.65;49.80;;;;;;;-7.12;65.33;97645.41;1803594;77;26517;-82
2021/03/09 00:37:15;;;;;;;148.65;56.55;;;;;;;-7.09;65.45;97636.89;1842926;77;25847;-82
2021/03/09 00:39:42;;;;;;;169.10;59.08;;;;;;;-7.09;65.43;97639.52;1833232;77;28421;-81
2021/03/09 00:42:10;;;;;;;144.35;54.73;;;;;;;-7.15;65.38;97633.36;1820941;77;25808;-84
2021/03/09 00:44:38;;;;;;;154.45;57.25;;;;;;;-7.17;65.25;97635.70;1833018;77;25957;-82
2021/03/09 00:47:05;;;;;;;160.37;55.65;;;;;;;-7.12;65.37;97635.77;1823251;77;25789;-83
2021/03/09 00:49:32;;;;;;;146.95;53.35;;;;;;;-7.09;65.26;97626.39;1841360;77;25757;-82
2021/03/09 00:52:00;;;;;;;149.47;53.40;;;;;;;-7.16;65.12;97629.52;1806083;77;28553;-83
2021/03/09 00:54:27;;;;;;;135.80;52.25;;;;;;;-7.21;65.05;97626.33;1842704;77;25828;-82
2021/03/09 00:56:54;;;;;;;143.87;52.10;;;;;;;-7.24;64.83;97626.55;1819299;77;26257;-83
2021/03/09 00:59:21;;;;;;;122.85;48.68;;;;;;;-7.37;64.89;97628.63;1842827;77;25701;-82
2021/03/09 01:01:49;;;;;;;142.60;49.45;;;;;;;-7.49;65.19;97625.92;1819332;77;25778;-82
2021/03/09 01:04:16;;;;;;;142.62;50.08;;;;;;;-7.52;65.40;97624.78;1842688;77;27478;-83
2021/03/09 01:06:44;;;;;;;145.80;50.28;;;;;;;-7.50;65.19;97629.47;1839453;77;25788;-83
2021/03/09 01:09:11;;;;;;;129.87;48.28;;;;;;;-7.51;65.07;97633.88;1821010;77;25683;-82
2021/03/09 01:11:38;;;;;;;134.05;48.55;;;;;;;-7.60;64.84;97630.48;1837530;77;26443;-83
2021/03/09 01:14:06;;;;;;;140.97;47.98;;;;;;;-7.68;64.84;97630.97;1799244;77;25668;-82
2021/03/09 01:16:33;;;;;;;121.50;44.98;;;;;;;-7.71;64.86;97623.28;1824510;77;27556;-82
2021/03/09 01:19:00;;;;;;;136.60;50.28;;;;;;;-7.75;64.81;97624.42;1841962;77;25354;-82
2021/03/09 01:21:28;;;;;;;134.20;48.87;;;;;;;-7.83;64.80;97628.42;1823753;77;25447;-85
2021/03/09 01:23:55;;;;;;;155.82;50.30;;;;;;;-7.90;64.79;97628.43;1832264;77;25825;-83
2021/03/09 01:26:22;;;;;;;142.28;48.05;;;;;;;-7.92;64.95;97623.28;1809780;77;25883;-85
2021/03/09 01:28:49;;;;;;;170.97;55.83;;;;;;;-7.90;65.19;97622.72;1829509;77;28439;-85
2021/03/09 01:31:17;;;;;;;173.70;57.45;;;;;;;-7.89;65.30;97623.10;1835715;77;26188;-82
2021/03/09 01:33:44;;;;;;;168.35;58.52;;;;;;;-7.89;65.30;97619.17;1821159;77;25792;-81
2021/03/09 01:36:11;;;;;;;171.45;55.38;;;;;;;-7.95;65.31;97612.98;1810525;77;26835;-82
2021/03/09 01:38:38;;;;;;;173.53;56.95;;;;;;;-7.98;65.34;97619.73;1797161;77;25789;-82
2021/03/09 01:41:06;;;;;;;150.27;55.15;;;;;;;-7.99;65.37;97615.42;1832910;77;28527;-81
2021/03/09 01:43:34;;;;;;;157.18;54.75;;;;;;;-7.90;65.51;97616.17;1821417;77;25730;-81
2021/03/09 01:46:01;;;;;;;131.85;45.48;;;;;;;-7.88;65.34;97622.63;1842714;77;25668;-82
2021/03/09 01:48:34;;;;;;;116.45;43.08;;;;;;;-7.89;65.34;97620.48;1819314;77;25886;-82
2021/03/09 01:51:01;;;;;;;114.00;41.00;;;;;;;-7.86;65.41;97617.69;1842614;77;25787;-87
2021/03/09 01:53:29;;;;;;;112.42;40.33;;;;;;;-7.91;65.28;97613.17;1842672;77;28453;-81
2021/03/09 01:55:58;;;;;;;109.37;38.95;;;;;;;-7.97;65.32;97617.48;1821350;77;25651;-81
2021/03/09 01:58:27;;;;;;;108.22;38.78;;;;;;;-8.03;65.12;97613.91;1796295;77;25763;-82
2021/03/09 02:00:54;;;;;;;108.52;41.25;;;;;;;-8.13;64.94;97614.09;1795980;77;25844;-83
2021/03/09 02:03:22;;;;;;;115.00;40.83;;;;;;;-8.19;65.13;97614.44;1770212;77;25767;-82
2021/03/09 02:05:49;;;;;;;113.05;41.45;;;;;;;-8.15;65.25;97614.18;1764281;79;27608;-85
2021/03/09 02:08:17;;;;;;;114.15;40.80;;;;;;;-8.14;65.25;97611.94;1788767;77;25798;-81
2021/03/09 02:10:44;;;;;;;105.47;40.15;;;;;;;-8.14;65.40;97611.09;1791372;77;26307;-86
2021/03/09 02:13:39;;;;;;;119.37;41.65;;;;;;;-8.11;65.50;97613.54;1781142;77;26425;-82
2021/03/09 02:16:24;;;;;;;113.68;41.18;;;;;;;-8.13;65.41;97611.01;1772677;77;25690;-86
2021/03/09 02:19:26;;;;;;;118.40;41.23;;;;;;;-8.15;65.30;97616.80;1773838;79;27565;-81
2021/03/09 02:22:37;;;;;;;103.25;36.28;;;;;;;-8.13;65.25;97612.78;1792746;77;26034;-87
2021/03/09 02:25:32;;;;;;;99.35;36.58;;;;;;;-8.21;65.20;97613.22;1778809;77;25642;-82
2021/03/09 02:28:39;;;;;;;96.53;36.33;;;;;;;-8.32;65.20;97620.06;1765379;79;25821;-82
2021/03/09 02:31:07;;;;;;;144.00;46.00;;;;;;;-8.41;65.15;97617.52;1764255;79;25765;-82
2021/03/09 02:33:40;;;;;;;140.43;47.15;;;;;;;-8.42;65.26;97617.14;1778723;77;27558;-83
2021/03/09 02:36:15;;;;;;;136.80;49.93;;;;;;;-8.45;65.36;97616.84;1792656;77;26499;-83
2021/03/09 02:39:03;;;;;;;130.27;46.10;;;;;;;-8.48;65.47;97615.74;1773146;79;26554;-82
2021/03/09 02:41:31;;;;;;;137.37;44.25;;;;;;;-8.43;65.52;97608.44;1799052;77;25822;-82
2021/03/09 02:44:00;;;;;;;175.03;58.73;;;;;;;-8.42;65.49;97614.06;1780450;78;25704;-83
2021/03/09 02:46:31;;;;;;;142.22;48.13;;;;;;;-8.45;65.41;97616.84;1764129;79;27691;-82
2021/03/09 02:48:59;;;;;;;121.82;39.40;;;;;;;-8.47;65.38;97610.04;1733072;79;26190;-82
2021/03/09 02:51:29;;;;;;;111.62;38.38;;;;;;;-8.42;65.43;97615.37;1732921;80;25757;-82
2021/03/09 02:53:59;;;;;;;108.32;35.08;;;;;;;-8.41;65.36;97614.44;1761983;79;26320;-82
2021/03/09 02:56:26;;;;;;;98.87;34.20;;;;;;;-8.42;65.21;97617.14;1739050;81;25872;-82
2021/03/09 02:58:57;;;;;;;100.33;34.43;;;;;;;-8.46;65.18;97615.19;1830179;77;28469;-82
2021/03/09 03:01:29;;;;;;;119.70;44.48;;;;;;;-8.50;65.20;97614.98;1809462;77;25738;-82
2021/03/09 03:03:57;;;;;;;116.37;44.63;;;;;;;-8.55;65.22;97610.47;1825329;77;25683;-83
2021/03/09 03:06:27;;;;;;;126.87;43.42;;;;;;;-8.59;65.23;97610.29;1796375;77;25899;-82
2021/03/09 03:08:56;;;;;;;114.37;40.73;;;;;;;-8.65;65.22;97606.70;1809298;77;25822;-82
2021/03/09 03:11:25;;;;;;;78.92;30.60;;;;;;;-8.75;65.10;97610.78;1836458;77;27586;-82
2021/03/09 03:13:54;;;;;;;85.60;32.70;;;;;;;-8.82;65.16;97616.00;1842442;77;25772;-82
2021/03/09 03:16:25;;;;;;;84.10;30.57;;;;;;;-8.89;65.27;97609.41;1830490;77;25781;-82
2021/03/09 03:18:54;;;;;;;88.97;30.65;;;;;;;-8.95;65.37;97617.63;1793959;77;26836;-82
2021/03/09 03:21:22;;;;;;;84.77;32.23;;;;;;;-8.91;65.40;97613.88;1823885;77;25781;-82
2021/03/09 03:23:51;;;;;;;91.70;31.75;;;;;;;-8.92;65.32;97614.81;1821290;77;27427;-82
2021/03/09 03:26:21;;;;;;;73.85;30.77;;;;;;;-8.93;65.31;97614.43;1818241;77;25791;-81
2021/03/09 03:28:50;;;;;;;91.53;32.00;;;;;;;-8.89;65.45;97620.72;1842565;77;25696;-83
2021/03/09 03:31:18;;;;;;;96.40;34.25;;;;;;;-8.91;65.36;97624.34;1819309;77;25830;-82
2021/03/09 03:33:47;;;;;;;101.45;34.15;;;;;;;-8.96;65.29;97618.55;1842633;77;25802;-85
2021/03/09 03:36:16;;;;;;;87.47;29.70;;;;;;;-9.00;65.22;97615.72;1819216;77;26673;-82
2021/03/09 03:38:44;;;;;;;90.80;34.10;;;;;;;-9.04;65.21;97619.42;1842528;77;25978;-82
2021/03/09 03:41:12;;;;;;;86.37;34.85;;;;;;;-9.10;65.29;97624.09;1839842;77;25650;-81
2021/03/09 03:43:40;;;;;;;96.70;35.80;;;;;;;-9.12;65.33;97623.33;1822991;77;25875;-82
2021/03/09 03:46:08;;;;;;;84.77;35.63;;;;;;;-9.16;65.36;97619.64;1842728;77;25757;-82
2021/03/09 03:48:37;;;;;;;88.45;31.82;;;;;;;-9.21;65.32;97612.54;1834516;77;27509;-82
2021/03/09 03:51:12;;;;;;;86.87;32.20;;;;;;;-9.29;65.32;97612.09;1818026;77;25785;-82
2021/03/09 03:53:59;;;;;;;81.50;29.82;;;;;;;-9.32;65.33;97617.05;1831864;77;25725;-82
2021/03/09 03:56:44;;;;;;;78.30;29.35;;;;;;;-9.35;65.35;97618.52;1837999;77;26271;-82
2021/03/09 03:59:15;;;;;;;76.35;26.87;;;;;;;-9.32;65.55;97618.83;1804977;77;25356;-82
2021/03/09 04:01:44;;;;;;;85.22;29.25;;;;;;;-9.31;65.38;97623.97;1836817;77;27626;-82
2021/03/09 04:04:14;;;;;;;85.07;29.45;;;;;;;-9.36;65.50;97619.45;1816701;77;25301;-82
2021/03/09 04:06:49;;;;;;;79.45;30.20;;;;;;;-9.39;65.57;97623.53;1832195;77;25766;-83
2021/03/09 04:09:17;;;;;;;88.80;29.12;;;;;;;-9.40;65.66;97621.84;1853921;77;25932;-82
2021/03/09 04:11:47;;;;;;;71.53;26.15;;;;;;;-9.34;65.58;97623.29;1854850;77;25733;-82
2021/03/09 04:14:17;;;;;;;69.70;25.50;;;;;;;-9.34;65.35;97617.59;1851377;77;27484;-83
2021/03/09 04:16:48;;;;;;;70.15;26.57;;;;;;;-9.32;65.47;97618.83;1816063;77;25750;-82
2021/03/09 04:19:17;;;;;;;67.45;26.30;;;;;;;-9.28;65.50;97618.55;1855071;77;35277;-82
2021/03/09 04:21:46;;;;;;;79.40;27.85;;;;;;;-9.30;65.27;97617.82;1827373;77;26441;-82
2021/03/09 04:24:16;;;;;;;69.90;26.90;;;;;;;-9.37;65.31;97616.91;1851475;77;25686;-81
2021/03/09 04:26:45;;;;;;;78.22;29.35;;;;;;;-9.36;65.30;97610.30;1854620;77;28443;-82
2021/03/09 04:29:14;;;;;;;74.03;29.35;;;;;;;-9.37;65.25;97611.69;1821258;77;26439;-82
2021/03/09 04:31:43;;;;;;;79.45;29.12;;;;;;;-9.44;65.18;97612.96;1845331;77;25699;-82
2021/03/09 04:34:11;;;;;;;103.07;38.80;;;;;;;-9.57;65.21;97614.09;1835455;77;25883;-82
2021/03/09 04:36:43;;;;;;;93.90;36.13;;;;;;;-9.66;65.29;97617.20;1854815;77;25689;-82
2021/03/09 04:39:12;;;;;;;86.65;36.95;;;;;;;-9.76;65.53;97619.91;1854912;76;27520;-83
2021/03/09 04:41:40;;;;;;;99.85;40.58;;;;;;;-9.85;65.60;97618.17;1815949;77;25700;-82
2021/03/09 04:44:07;;;;;;;90.50;36.38;;;;;;;-9.90;65.69;97625.39;1803720;77;25831;-82
2021/03/09 04:46:36;;;;;;;89.58;36.25;;;;;;;-9.91;65.71;97619.81;1843492;77;25824;-82
2021/03/09 04:49:05;;;;;;;71.92;29.80;;;;;;;-9.87;65.78;97622.63;1852545;77;25698;-82
2021/03/09 04:51:36;;;;;;;74.62;29.07;;;;;;;-9.84;65.73;97616.41;1830145;77;27530;-82
2021/03/09 04:54:04;;;;;;;73.42;30.25;;;;;;;-9.83;65.66;97622.85;1816494;77;25304;-83
2021/03/09 04:56:34;;;;;;;68.92;27.70;;;;;;;-9.84;65.55;97622.93;1815625;77;26327;-82
2021/03/09 04:59:04;;;;;;;79.50;28.87;;;;;;;-9.85;65.51;97626.00;1818571;78;25864;-82
2021/03/09 05:01:33;;;;;;;84.65;29.05;;;;;;;-9.80;65.49;97622.31;1821039;78;25785;-81
2021/03/09 05:04:00;;;;;;;82.27;29.25;;;;;;;-9.75;65.56;97625.51;1818580;78;27536;-82
2021/03/09 05:06:27;;;;;;;80.92;29.05;;;;;;;-9.73;65.40;97621.05;1800415;78;25750;-82
2021/03/09 05:08:55;;;;;;;77.85;27.80;;;;;;;-9.70;65.43;97618.28;1815935;78;25771;-86
2021/03/09 05:11:22;;;;;;;68.45;25.45;;;;;;;-9.68;65.47;97624.27;1817210;77;26340;-83
2021/03/09 05:13:49;;;;;;;72.42;26.12;;;;;;;-9.65;65.53;97633.23;1807603;78;25364;-82
2021/03/09 05:16:17;;;;;;;55.12;22.87;;;;;;;-9.65;65.46;97635.38;1817972;77;28474;-82
2021/03/09 05:18:44;;;;;;;55.50;22.22;;;;;;;-9.62;65.41;97638.30;1821096;78;25256;-83
2021/03/09 05:21:11;;;;;;;73.83;24.75;;;;;;;-9.59;65.40;97638.99;1815923;78;25295;-82
2021/03/09 05:23:39;;;;;;;85.42;28.73;;;;;;;-9.52;65.41;97635.57;1802316;78;25827;-83
2021/03/09 05:26:06;;;;;;;59.10;22.05;;;;;;;-9.45;65.39;97644.79;1805997;78;25641;-82
2021/03/09 05:28:34;;;;;;;62.17;24.47;;;;;;;-9.39;65.31;97640.52;1804359;78;27481;-83
2021/03/09 05:31:02;;;;;;;95.10;35.23;;;;;;;-9.41;65.25;97637.60;1790269;78;25752;-81
2021/03/09 05:33:29;;;;;;;98.33;35.43;;;;;;;-9.32;65.38;97641.89;1802270;78;26427;-82
2021/03/09 05:35:57;;;;;;;113.95;37.33;;;;;;;-9.29;65.28;97636.47;1803109;78;25830;-83
2021/03/09 05:38:24;;;;;;;118.80;39.88;;;;;;;-9.28;65.23;97639.93;1814303;78;25873;-82
2021/03/09 05:40:53;;;;;;;100.90;34.98;;;;;;;-9.30;65.32;97641.34;1802121;78;27549;-82
2021/03/09 05:43:21;;;;;;;118.82;42.00;;;;;;;-9.23;65.32;97637.92;1798126;78;25783;-82
2021/03/09 05:45:48;;;;;;;124.25;41.80;;;;;;;-9.22;65.20;97639.61;1808697;78;25739;-82
2021/03/09 05:48:16;;;;;;;130.82;42.65;;;;;;;-9.21;65.30;97642.14;1816858;78;25715;-83
2021/03/09 05:50:43;;;;;;;98.25;39.13;;;;;;;-9.12;65.35;97637.70;1802189;78;25913;-82
2021/03/09 05:53:10;;;;;;;87.75;32.55;;;;;;;-9.06;65.33;97637.84;1792620;78;27458;-81
2021/03/09 05:55:38;;;;;;;110.68;40.25;;;;;;;-8.98;65.50;97641.33;1801724;78;26102;-82
2021/03/09 05:58:05;;;;;;;132.37;46.70;;;;;;;-8.94;65.29;97636.31;1804340;77;25726;-83
2021/03/09 06:00:32;;;;;;;141.20;48.48;;;;;;;-8.90;65.36;97636.50;1840130;77;25740;-82
2021/03/09 06:03:01;;;;;;;144.15;50.98;;;;;;;-8.83;65.46;97635.24;1845379;77;25871;-84
2021/03/09 06:05:29;;;;;;;154.12;53.83;;;;;;;-8.76;65.45;97642.65;1836830;77;27481;-82
2021/03/09 06:07:56;;;;;;;146.50;56.90;;;;;;;-8.69;65.35;97645.74;1834709;77;25864;-82
2021/03/09 06:10:25;;;;;;;153.53;55.40;;;;;;;-8.66;65.29;97646.88;1834853;77;25665;-85
2021/03/09 06:12:53;;;;;;;140.97;57.53;;;;;;;-8.68;65.29;97640.89;1848839;77;26267;-82
2021/03/09 06:15:21;;;;;;;130.82;50.63;;;;;;;-8.62;65.43;97651.02;1848866;77;25934;-82
2021/03/09 06:17:58;;;;;;;116.45;43.92;;;;;;;-8.57;65.36;97650.28;1819893;77;27498;-83
2021/03/09 06:20:29;;;;;;;107.95;38.25;;;;;;;-8.49;65.36;97654.63;1848578;76;26210;-84
2021/03/09 06:23:01;;;;;;;77.60;28.60;;;;;;;-8.39;65.40;97657.09;1813858;77;25789;-83
2021/03/09 06:25:37;;;;;;;102.42;36.20;;;;;;;-8.32;65.37;97649.70;1824371;77;26295;-82
2021/03/09 06:28:07;;;;;;;101.22;38.17;;;;;;;-8.24;65.44;97659.72;1798442;77;25753;-82
2021/03/09 06:30:40;;;;;;;97.22;34.48;;;;;;;-8.18;65.43;97660.66;1833468;77;27551;-83
2021/03/09 06:33:09;;;;;;;108.83;39.48;;;;;;;-8.10;65.51;97664.53;1826607;77;26089;-82
2021/03/09 06:35:45;;;;;;;107.97;39.90;;;;;;;-8.00;65.61;97667.45;1811636;77;25815;-85
2021/03/09 06:38:23;;;;;;;95.25;36.77;;;;;;;-7.89;65.62;97660.25;1831757;77;25865;-82
2021/03/09 06:41:12;;;;;;;93.15;34.48;;;;;;;-7.78;65.63;97665.22;1809851;77;25683;-82
2021/03/09 06:43:46;;;;;;;78.45;31.97;;;;;;;-7.71;65.59;97667.84;1807113;77;28930;-83
2021/03/09 06:46:18;;;;;;;83.40;34.78;;;;;;;-7.55;65.73;97666.91;1826746;77;26183;-83
2021/03/09 06:48:50;;;;;;;85.90;32.38;;;;;;;-7.44;65.68;97673.66;1821398;77;30495;-82
2021/03/09 06:51:32;;;;;;;75.42;29.23;;;;;;;-7.34;65.66;97677.39;1795116;77;25820;-82
2021/03/09 06:54:06;;;;;;;;;;;;;;;-7.29;65.64;97681.89;1812279;77;26280;-81
2021/03/09 06:56:36;;;;;;;58.50;26.12;;;;;;;-7.36;65.71;97692.37;1831520;77;27548;-82
2021/03/09 06:59:31;;;;;;;78.75;30.95;;;;;;;-7.29;65.90;97679.27;1830049;77;25752;-83
2021/03/09 07:02:27;;;;;;;75.30;31.77;;;;;;;-7.12;66.04;97691.33;1857876;77;25749;-82
2021/03/09 07:05:09;;;;;;;74.17;30.52;;;;;;;-6.92;66.18;97682.59;1841131;77;26270;-82
2021/03/09 07:07:41;;;;;;;;;;;;;;;-6.76;66.15;97675.07;1837008;77;25702;-83
2021/03/09 07:10:18;;;;;;;69.95;30.25;;;;;;;-6.73;66.07;97666.97;1858390;77;28542;-82
2021/03/09 07:12:48;;;;;;;74.50;31.25;;;;;;;-6.64;66.05;97676.41;1858131;76;25803;-82
2021/03/09 07:15:19;;;;;;;77.08;33.33;;;;;;;-6.53;66.20;97665.70;1858065;76;25681;-84
2021/03/09 07:17:51;;;;;;;72.53;31.65;;;;;;;-6.37;66.30;97667.21;1834154;76;25829;-84
2021/03/09 07:20:19;;;;;;;66.47;29.33;;;;;;;-6.22;66.33;97670.16;1842827;77;25783;-84
2021/03/09 07:22:47;;;;;;;61.48;28.92;;;;;;;-6.14;66.24;97680.61;1824096;77;27484;-82
2021/03/09 07:25:17;;;;;;;59.40;28.05;;;;;;;-6.02;66.52;97675.38;1823993;77;25718;-82
2021/03/09 07:28:05;;;;;;;66.02;29.70;;;;;;;-5.76;66.69;97675.38;1824133;77;25793;-83
2021/03/09 07:30:38;;;;;;;52.85;25.45;;;;;;;-5.52;66.73;97669.30;1821342;77;25847;-83
2021/03/09 07:33:06;;;;;;;58.73;26.73;;;;;;;-5.37;66.58;97666.55;1820489;77;25738;-83
2021/03/09 07:35:34;;;;;;;60.70;27.37;;;;;;;-5.26;66.39;97670.59;1823083;77;27545;-83
2021/03/09 07:38:05;;;;;;;76.33;32.15;;;;;;;-5.17;66.33;97667.30;1835414;77;26416;-81
2021/03/09 07:40:36;;;;;;;81.78;32.38;;;;;;;-4.99;66.42;97669.13;1835314;77;25349;-81
2021/03/09 07:43:04;;;;;;;77.20;32.63;;;;;;;-4.73;66.62;97661.05;1824400;77;26726;-81
2021/03/09 07:45:38;;;;;;;82.37;34.35;;;;;;;-4.49;66.43;97661.54;1823761;77;43926;-81
2021/03/09 07:48:09;;;;;;;78.57;34.75;;;;;;;-4.32;66.27;97655.86;1820326;77;27573;-82
2021/03/09 07:50:44;;;;;;;75.80;32.78;;;;;;;-4.10;66.17;97656.41;1820222;77;25747;-81
2021/03/09 07:53:22;;;;;;;78.65;35.78;;;;;;;-3.83;65.86;97661.41;1824110;77;25753;-81
2021/03/09 07:56:13;;;;;;;73.57;32.85;;;;;;;-3.67;65.58;97657.51;1824162;77;26691;-81
2021/03/09 07:58:42;;;;;;;81.42;35.63;;;;;;;-3.53;65.33;97660.41;1845041;77;26212;-81
2021/03/09 08:01:11;;;;;;;75.57;31.65;;;;;;;-3.39;65.14;97664.16;1846188;77;27480;-80
2021/03/09 08:03:44;;;;;;;75.22;31.90;;;;;;;-3.38;64.79;97657.89;1841656;77;25866;-80
2021/03/09 08:06:15;;;;;;;45.95;20.72;;;;;;;-3.39;64.95;97651.44;1823716;77;25635;-81
2021/03/09 08:08:52;;;;;;;39.23;16.87;;;;;;;-3.34;64.81;97647.46;1775666;79;25996;-82
2021/03/09 08:11:25;;;;;;;46.37;20.30;;;;;;;-3.25;64.65;97647.22;1775054;79;25824;-81
2021/03/09 08:14:10;;;;;;;67.62;29.27;;;;;;;-3.19;64.79;97643.27;1797251;79;28417;-83
2021/03/09 08:16:43;;;;;;;96.20;40.88;;;;;;;-3.01;64.91;97641.32;1797281;79;25714;-81
2021/03/09 08:19:11;;;;;;;;;;;;;;;-2.80;64.60;97633.52;1800461;78;25802;-80
2021/03/09 08:21:54;;;;;;;75.65;31.23;;;;;;;-2.80;64.04;97626.91;1765641;79;25834;-80
2021/03/09 08:24:42;;;;;;;;;;;;;;;-2.84;64.06;97626.78;1768430;79;25809;-81
2021/03/09 08:27:32;;;;;;;66.30;25.65;;;;;;;-2.71;64.23;97627.96;1765651;79;27620;-80
2021/03/09 08:30:29;;;;;;;58.63;25.82;;;;;;;-2.54;64.07;97627.45;1808657;78;26446;-80
2021/03/09 08:33:24;;;;;;;57.98;24.77;;;;;;;-2.57;63.76;97622.41;1789351;79;25686;-82
2021/03/09 08:35:51;;;;;;;56.73;25.90;;;;;;;-2.38;63.97;97627.02;1773607;78;25814;-80
2021/03/09 08:38:21;;;;;;;58.45;26.23;;;;;;;-2.07;64.05;97620.05;1808703;78;25703;-81
2021/03/09 08:41:06;;;;;;;49.63;24.12;;;;;;;-1.82;63.87;97624.97;1801278;78;28471;-80
2021/03/09 08:43:35;;;;;;;50.25;23.10;;;;;;;-1.59;63.60;97620.38;1796382;78;26855;-79
2021/03/09 08:46:04;;;;;;;48.00;21.42;;;;;;;-1.44;63.29;97615.06;1790428;78;25791;-81
2021/03/09 08:48:50;;;;;;;37.85;19.32;;;;;;;-1.24;63.04;97616.02;1790126;78;26747;-82
2021/03/09 08:51:45;;;;;;;35.17;17.75;;;;;;;-1.03;62.87;97610.16;1790469;78;26300;-79
2021/03/09 08:54:25;;;;;;;47.23;22.48;;;;;;;-0.90;62.52;97607.28;1790325;78;28375;-79
2021/03/09 08:56:53;;;;;;;44.60;23.20;;;;;;;-0.72;62.29;97606.47;1791125;78;25772;-81
2021/03/09 08:59:27;;;;;;;55.73;26.87;;;;;;;-0.48;62.11;97602.12;1780952;79;25703;-79
2021/03/09 09:02:05;;;;;;;54.15;26.80;;;;;;;-0.15;61.89;97601.39;1780812;79;25832;-80
2021/03/09 09:04:32;;;;;;;54.98;26.07;;;;;;;0.19;61.98;97593.81;1782361;79;25789;-83
2021/03/09 09:07:00;;;;;;;52.40;25.72;;;;;;;0.52;61.41;97593.31;1781090;79;27680;-87
2021/03/09 09:09:36;;;;;;;50.67;23.22;;;;;;;0.73;61.24;97595.75;1781010;79;25783;-83
2021/03/09 09:12:30;;;;;;;51.48;23.40;;;;;;;1.13;61.06;97591.95;1781146;79;25671;-82
2021/03/09 09:15:05;;;;;;;45.60;24.45;;;;;;;1.42;60.23;97587.31;1700887;83;26867;-82
2021/03/09 09:17:34;;;;;;;45.23;24.15;;;;;;;1.71;60.07;97589.75;1717956;83;25466;-82
2021/03/09 09:20:12;;;;;;;50.55;25.08;;;;;;;2.06;60.09;97586.23;1753949;81;27686;-82
2021/03/09 09:22:40;;;;;;;36.93;19.90;;;;;;;2.43;59.67;97581.53;1752480;80;25362;-81
2021/03/09 09:25:13;;;;;;;32.63;15.85;;;;;;;2.79;58.54;97573.42;1710964;83;26401;-83
2021/03/09 09:30:43;;;;;;;48.75;21.62;;;;;;;3.41;57.20;97564.17;1824741;76;34991;-83
2021/03/09 09:33:13;;;;;;;21.52;11.38;;;;;;;3.53;57.47;97575.38;1787539;78;25760;-82
2021/03/09 09:35:42;;;;;;;30.37;14.10;;;;;;;3.87;56.76;97564.58;1795883;78;27694;-85
2021/03/09 09:38:17;;;;;;;21.70;12.55;;;;;;;4.26;55.85;97567.44;1787400;78;26533;-84
2021/03/09 09:40:54;;;;;;;27.62;15.18;;;;;;;4.61;55.17;97564.39;1795782;78;26464;-85
2021/03/09 09:43:24;;;;;;;30.88;14.58;;;;;;;4.91;55.07;97566.00;1796300;78;25827;-84
2021/03/09 09:46:05;;;;;;;19.48;10.80;;;;;;;5.23;54.82;97561.86;1793683;78;25864;-84
2021/03/09 09:48:38;;;;;;;19.45;11.97;;;;;;;5.53;54.11;97556.70;1800708;78;27529;-83
2021/03/09 09:51:10;;;;;;;17.17;10.58;;;;;;;5.32;53.08;97555.45;1792166;78;25688;-83
2021/03/09 09:53:44;;;;;;;25.35;15.18;;;;;;;5.04;52.77;97556.92;1787437;78;33056;-83
2021/03/09 09:56:22;;;;;;;47.88;29.30;;;;;;;5.08;52.82;97561.73;1791140;78;26321;-83
2021/03/09 09:58:53;;;;;;;72.97;37.42;;;;;;;5.30;53.08;97562.01;1794741;78;25741;-83
2021/03/09 10:01:38;;;;;;;46.63;25.35;;;;;;;5.50;52.56;97555.70;1796401;78;26671;-83
2021/03/09 10:04:14;;;;;;;36.85;17.98;;;;;;;5.55;52.26;97558.70;1787739;78;25294;-83
2021/03/09 10:06:45;;;;;;;38.35;19.98;;;;;;;5.48;52.18;97557.22;1814902;78;25658;-86
2021/03/09 10:09:18;;;;;;;36.95;21.60;;;;;;;4.92;51.26;97551.62;1801131;77;25576;-83
2021/03/09 10:11:56;;;;;;;29.57;16.45;;;;;;;4.40;51.66;97550.73;1797963;78;25794;-83
2021/03/09 10:14:26;;;;;;;31.17;14.60;;;;;;;4.26;51.67;97554.91;1793704;78;27713;-83
2021/03/09 10:16:54;;;;;;;43.10;21.35;;;;;;;4.13;51.12;97553.75;1799940;78;26490;-84
2021/03/09 10:19:24;;;;;;;44.00;21.23;;;;;;;4.03;51.24;97548.58;1792403;78;25637;-83
2021/03/09 10:21:55;;;;;;;44.53;22.42;;;;;;;3.84;51.14;97550.25;1793995;78;25330;-84
2021/03/09 10:24:32;;;;;;;27.22;15.50;;;;;;;3.75;51.00;97546.72;1787836;78;25859;-82
2021/03/09 10:27:01;;;;;;;26.48;15.40;;;;;;;3.68;50.83;97546.22;1806843;78;27709;-83
2021/03/09 10:29:33;;;;;;;21.70;13.20;;;;;;;3.65;50.41;97543.37;1812653;77;26126;-85
2021/03/09 10:32:03;;;;;;;23.45;14.00;;;;;;;3.52;49.70;97544.34;1760352;80;25773;-83
2021/03/09 10:34:48;;;;;;;32.10;16.32;;;;;;;3.35;50.02;97534.65;1781568;78;25367;-83
2021/03/09 10:37:18;;;;;;;34.45;18.35;;;;;;;3.31;50.28;97530.63;1788633;78;25802;-84
2021/03/09 10:40:00;;;;;;;57.93;34.70;;;;;;;3.07;49.97;97529.55;1807128;78;28601;-85
2021/03/09 10:42:40;;;;;;;34.63;21.05;;;;;;;3.08;50.44;97524.56;1819136;78;26621;-85
2021/03/09 10:45:26;;;;;;;18.12;10.88;;;;;;;3.15;50.09;97529.58;1787518;78;25632;-83
2021/03/09 10:48:01;;;;;;;21.12;12.03;;;;;;;3.20;49.31;97525.94;1796923;77;25663;-83
2021/03/09 10:50:42;;;;;;;25.50;13.98;;;;;;;3.22;48.93;97519.11;1792701;78;25749;-83
2021/03/09 10:53:09;;;;;;;22.75;11.25;;;;;;;3.26;49.31;97521.27;1794468;78;27690;-83
2021/03/09 10:55:37;;;;;;;17.95;10.63;;;;;;;3.23;49.24;97522.11;1775558;78;25754;-83
2021/03/09 10:58:05;;;;;;;20.77;10.93;;;;;;;3.03;49.02;97516.20;1775646;78;25726;-83
2021/03/09 11:00:33;;;;;;;18.10;10.18;;;;;;;2.90;49.37;97517.98;1807264;78;25814;-83
2021/03/09 11:03:00;;;;;;;20.70;11.73;;;;;;;2.96;49.33;97510.34;1793673;78;25775;-83
2021/03/09 11:05:28;;;;;;;16.85;10.48;;;;;;;3.05;48.82;97515.55;1783809;78;28629;-83
2021/03/09 11:07:55;;;;;;;18.60;9.90;;;;;;;3.15;48.95;97520.23;1793855;78;25904;-83
2021/03/09 11:10:23;;;;;;;21.20;10.55;;;;;;;3.25;48.78;97520.96;1775635;78;25826;-82
2021/03/09 11:12:50;;;;;;;17.62;9.65;;;;;;;3.31;48.31;97518.62;1802149;78;26081;-83
2021/03/09 11:15:18;;;;;;;15.72;10.35;;;;;;;3.36;48.22;97514.97;1787414;78;25840;-83
2021/03/09 11:17:46;;;;;;;20.45;11.12;;;;;;;3.32;48.80;97509.63;1780727;78;27707;-83
2021/03/09 11:20:15;;;;;;;20.02;10.05;;;;;;;3.36;48.33;97509.64;1789390;78;25889;-82
2021/03/09 11:22:43;;;;;;;22.20;11.18;;;;;;;3.39;48.20;97503.95;1798369;78;25698;-83
2021/03/09 11:25:11;;;;;;;18.98;10.70;;;;;;;3.54;48.36;97499.64;1791098;78;25674;-84
2021/03/09 11:27:39;;;;;;;21.57;10.32;;;;;;;3.70;47.86;97499.67;1783568;78;25819;-83
2021/03/09 11:30:08;;;;;;;15.38;9.13;;;;;;;3.81;48.24;97496.67;1785063;78;28493;-83
2021/03/09 11:32:35;;;;;;;16.40;8.93;;;;;;;4.13;48.01;97500.31;1792568;78;25695;-83
2021/03/09 11:35:03;;;;;;;16.02;8.60;;;;;;;4.31;47.03;97492.95;1792682;78;26331;-82
2021/03/09 11:37:31;;;;;;;14.87;7.95;;;;;;;4.67;46.78;97488.02;1792589;78;26244;-84
2021/03/09 11:39:58;;;;;;;12.65;7.60;;;;;;;5.09;46.03;97478.29;1815533;78;26104;-84